sensor_id;sensor_type;location;lat;lon;timestamp;P1;durP1;ratioP1;P2;durP2;ratioP2
30398;SDS011;17195;50.838;7.214;2024-03-08T00:00:15;32.70;;;17.17;;
30398;SDS011;17195;50.838;7.214;2024-03-08T00:02:45;27.95;;;17.95;;
30398;SDS011;17195;50.838;7.214;2024-03-08T00:05:11;27.90;;;16.92;;
30398;SDS011;17195;50.838;7.214;2024-03-08T00:07:38;32.42;;;17.98;;
30398;SDS011;17195;50.838;7.214;2024-03-08T00:10:05;29.85;;;16.98;;
30398;SDS011;17195;50.838;7.214;2024-03-08T00:12:36;31.42;;;18.42;;
30398;SDS011;17195;50.838;7.214;2024-03-08T00:15:02;28.38;;;17.52;;
30398;SDS011;17195;50.838;7.214;2024-03-08T00:17:28;31.40;;;18.10;;
30398;SDS011;17195;50.838;7.214;2024-03-08T00:19:53;27.40;;;17.15;;
30398;SDS011;17195;50.838;7.214;2024-03-08T00:22:19;28.05;;;18.35;;
30398;SDS011;17195;50.838;7.214;2024-03-08T00:24:45;28.27;;;17.65;;
30398;SDS011;17195;50.838;7.214;2024-03-08T00:27:10;27.40;;;17.45;;
30398;SDS011;17195;50.838;7.214;2024-03-08T00:29:36;29.83;;;17.70;;
30398;SDS011;17195;50.838;7.214;2024-03-08T00:32:03;32.33;;;17.65;;
30398;SDS011;17195;50.838;7.214;2024-03-08T00:34:29;29.02;;;17.90;;
30398;SDS011;17195;50.838;7.214;2024-03-08T00:36:56;28.77;;;17.95;;
30398;SDS011;17195;50.838;7.214;2024-03-08T00:39:22;29.08;;;17.65;;
30398;SDS011;17195;50.838;7.214;2024-03-08T00:41:48;29.40;;;17.83;;
30398;SDS011;17195;50.838;7.214;2024-03-08T00:44:13;29.55;;;18.30;;
30398;SDS011;17195;50.838;7.214;2024-03-08T00:46:39;33.05;;;19.10;;
30398;SDS011;17195;50.838;7.214;2024-03-08T00:49:04;28.83;;;16.95;;
30398;SDS011;17195;50.838;7.214;2024-03-08T00:51:30;31.85;;;18.13;;
30398;SDS011;17195;50.838;7.214;2024-03-08T00:53:55;30.50;;;17.92;;
30398;SDS011;17195;50.838;7.214;2024-03-08T00:56:21;33.88;;;18.85;;
30398;SDS011;17195;50.838;7.214;2024-03-08T00:58:46;30.75;;;18.20;;
30398;SDS011;17195;50.838;7.214;2024-03-08T01:01:15;31.70;;;18.08;;
30398;SDS011;17195;50.838;7.214;2024-03-08T01:03:43;30.65;;;17.85;;
30398;SDS011;17195;50.838;7.214;2024-03-08T01:06:09;32.90;;;18.70;;
30398;SDS011;17195;50.838;7.214;2024-03-08T01:08:34;30.30;;;18.35;;
30398;SDS011;17195;50.838;7.214;2024-03-08T01:11:03;29.95;;;18.15;;
30398;SDS011;17195;50.838;7.214;2024-03-08T01:13:29;32.08;;;18.70;;
30398;SDS011;17195;50.838;7.214;2024-03-08T01:15:55;31.88;;;18.23;;
30398;SDS011;17195;50.838;7.214;2024-03-08T01:18:21;30.10;;;18.33;;
30398;SDS011;17195;50.838;7.214;2024-03-08T01:20:47;27.95;;;17.83;;
30398;SDS011;17195;50.838;7.214;2024-03-08T01:23:12;30.13;;;18.15;;
30398;SDS011;17195;50.838;7.214;2024-03-08T01:25:38;30.80;;;19.20;;
30398;SDS011;17195;50.838;7.214;2024-03-08T01:28:04;31.75;;;18.90;;
30398;SDS011;17195;50.838;7.214;2024-03-08T01:30:30;33.15;;;18.25;;
30398;SDS011;17195;50.838;7.214;2024-03-08T01:32:57;31.70;;;18.52;;
30398;SDS011;17195;50.838;7.214;2024-03-08T01:35:23;30.10;;;18.08;;
30398;SDS011;17195;50.838;7.214;2024-03-08T01:37:49;32.10;;;18.23;;
30398;SDS011;17195;50.838;7.214;2024-03-08T01:40:15;32.92;;;19.05;;
30398;SDS011;17195;50.838;7.214;2024-03-08T01:42:41;31.95;;;18.88;;
30398;SDS011;17195;50.838;7.214;2024-03-08T01:45:07;28.67;;;18.05;;
30398;SDS011;17195;50.838;7.214;2024-03-08T01:47:33;36.80;;;19.65;;
30398;SDS011;17195;50.838;7.214;2024-03-08T01:50:00;28.98;;;18.73;;
30398;SDS011;17195;50.838;7.214;2024-03-08T01:52:26;36.40;;;20.75;;
30398;SDS011;17195;50.838;7.214;2024-03-08T01:54:53;32.45;;;18.17;;
30398;SDS011;17195;50.838;7.214;2024-03-08T01:57:19;33.72;;;19.40;;
30398;SDS011;17195;50.838;7.214;2024-03-08T01:59:45;30.42;;;17.55;;
30398;SDS011;17195;50.838;7.214;2024-03-08T02:02:11;34.00;;;19.15;;
30398;SDS011;17195;50.838;7.214;2024-03-08T02:04:42;31.90;;;19.65;;
30398;SDS011;17195;50.838;7.214;2024-03-08T02:07:07;31.90;;;19.50;;
30398;SDS011;17195;50.838;7.214;2024-03-08T02:09:33;34.67;;;18.90;;
30398;SDS011;17195;50.838;7.214;2024-03-08T02:11:58;32.65;;;18.85;;
30398;SDS011;17195;50.838;7.214;2024-03-08T02:14:24;34.08;;;19.27;;
30398;SDS011;17195;50.838;7.214;2024-03-08T02:16:50;36.22;;;18.13;;
30398;SDS011;17195;50.838;7.214;2024-03-08T02:19:16;31.42;;;19.35;;
30398;SDS011;17195;50.838;7.214;2024-03-08T02:21:41;30.95;;;18.88;;
30398;SDS011;17195;50.838;7.214;2024-03-08T02:24:08;33.33;;;19.60;;
30398;SDS011;17195;50.838;7.214;2024-03-08T02:26:34;34.05;;;19.27;;
30398;SDS011;17195;50.838;7.214;2024-03-08T02:28:59;29.85;;;18.98;;
30398;SDS011;17195;50.838;7.214;2024-03-08T02:31:26;32.65;;;20.20;;
30398;SDS011;17195;50.838;7.214;2024-03-08T02:33:51;34.00;;;19.15;;
30398;SDS011;17195;50.838;7.214;2024-03-08T02:36:17;31.55;;;18.88;;
30398;SDS011;17195;50.838;7.214;2024-03-08T02:38:42;33.78;;;19.50;;
30398;SDS011;17195;50.838;7.214;2024-03-08T02:41:08;33.60;;;19.17;;
30398;SDS011;17195;50.838;7.214;2024-03-08T02:43:33;31.10;;;18.80;;
30398;SDS011;17195;50.838;7.214;2024-03-08T02:45:59;30.75;;;17.88;;
30398;SDS011;17195;50.838;7.214;2024-03-08T02:48:25;31.15;;;19.20;;
30398;SDS011;17195;50.838;7.214;2024-03-08T02:50:50;32.00;;;19.05;;
30398;SDS011;17195;50.838;7.214;2024-03-08T02:53:17;32.17;;;19.02;;
30398;SDS011;17195;50.838;7.214;2024-03-08T02:55:43;32.35;;;20.02;;
30398;SDS011;17195;50.838;7.214;2024-03-08T02:58:09;31.85;;;19.15;;
30398;SDS011;17195;50.838;7.214;2024-03-08T03:00:35;33.63;;;19.02;;
30398;SDS011;17195;50.838;7.214;2024-03-08T03:03:02;33.85;;;18.38;;
30398;SDS011;17195;50.838;7.214;2024-03-08T03:05:28;34.20;;;20.00;;
30398;SDS011;17195;50.838;7.214;2024-03-08T03:07:57;29.38;;;18.27;;
30398;SDS011;17195;50.838;7.214;2024-03-08T03:10:23;34.10;;;20.27;;
30398;SDS011;17195;50.838;7.214;2024-03-08T03:12:49;32.38;;;19.27;;
30398;SDS011;17195;50.838;7.214;2024-03-08T03:15:15;32.08;;;19.23;;
30398;SDS011;17195;50.838;7.214;2024-03-08T03:17:47;32.30;;;18.20;;
30398;SDS011;17195;50.838;7.214;2024-03-08T03:20:13;34.17;;;19.80;;
30398;SDS011;17195;50.838;7.214;2024-03-08T03:22:41;31.95;;;18.77;;
30398;SDS011;17195;50.838;7.214;2024-03-08T03:25:07;28.60;;;17.95;;
30398;SDS011;17195;50.838;7.214;2024-03-08T03:27:34;33.72;;;19.95;;
30398;SDS011;17195;50.838;7.214;2024-03-08T03:30:00;34.95;;;20.20;;
30398;SDS011;17195;50.838;7.214;2024-03-08T03:35:12;33.60;;;18.63;;
30398;SDS011;17195;50.838;7.214;2024-03-08T03:37:39;35.22;;;19.40;;
30398;SDS011;17195;50.838;7.214;2024-03-08T03:40:07;33.38;;;19.77;;
30398;SDS011;17195;50.838;7.214;2024-03-08T03:42:33;31.15;;;18.48;;
30398;SDS011;17195;50.838;7.214;2024-03-08T03:44:59;31.77;;;19.13;;
30398;SDS011;17195;50.838;7.214;2024-03-08T03:47:25;31.30;;;19.40;;
30398;SDS011;17195;50.838;7.214;2024-03-08T03:49:52;32.85;;;19.02;;
30398;SDS011;17195;50.838;7.214;2024-03-08T03:52:19;33.30;;;18.75;;
30398;SDS011;17195;50.838;7.214;2024-03-08T03:54:44;34.15;;;19.30;;
30398;SDS011;17195;50.838;7.214;2024-03-08T03:57:10;36.88;;;19.83;;
30398;SDS011;17195;50.838;7.214;2024-03-08T03:59:37;37.28;;;20.45;;
30398;SDS011;17195;50.838;7.214;2024-03-08T04:02:02;31.67;;;19.02;;
30398;SDS011;17195;50.838;7.214;2024-03-08T04:04:29;34.28;;;20.13;;
30398;SDS011;17195;50.838;7.214;2024-03-08T04:06:54;32.40;;;19.08;;
30398;SDS011;17195;50.838;7.214;2024-03-08T04:09:20;32.80;;;19.08;;
30398;SDS011;17195;50.838;7.214;2024-03-08T04:11:47;36.70;;;20.15;;
30398;SDS011;17195;50.838;7.214;2024-03-08T04:14:13;32.92;;;20.65;;
30398;SDS011;17195;50.838;7.214;2024-03-08T04:16:38;31.60;;;19.35;;
30398;SDS011;17195;50.838;7.214;2024-03-08T04:19:04;34.80;;;19.95;;
30398;SDS011;17195;50.838;7.214;2024-03-08T04:21:30;35.03;;;19.75;;
30398;SDS011;17195;50.838;7.214;2024-03-08T04:23:55;32.15;;;19.42;;
30398;SDS011;17195;50.838;7.214;2024-03-08T04:26:21;31.38;;;19.00;;
30398;SDS011;17195;50.838;7.214;2024-03-08T04:28:47;33.65;;;18.65;;
30398;SDS011;17195;50.838;7.214;2024-03-08T04:31:12;30.95;;;18.88;;
30398;SDS011;17195;50.838;7.214;2024-03-08T04:33:38;33.58;;;18.38;;
30398;SDS011;17195;50.838;7.214;2024-03-08T04:36:04;33.63;;;18.90;;
30398;SDS011;17195;50.838;7.214;2024-03-08T04:38:30;32.88;;;18.77;;
30398;SDS011;17195;50.838;7.214;2024-03-08T04:40:56;33.50;;;19.90;;
30398;SDS011;17195;50.838;7.214;2024-03-08T04:43:22;35.50;;;19.92;;
30398;SDS011;17195;50.838;7.214;2024-03-08T04:45:51;35.80;;;19.27;;
30398;SDS011;17195;50.838;7.214;2024-03-08T04:48:17;35.60;;;20.13;;
30398;SDS011;17195;50.838;7.214;2024-03-08T04:50:42;32.70;;;18.67;;
30398;SDS011;17195;50.838;7.214;2024-03-08T04:53:09;35.08;;;18.95;;
30398;SDS011;17195;50.838;7.214;2024-03-08T04:55:35;37.65;;;19.95;;
30398;SDS011;17195;50.838;7.214;2024-03-08T04:58:02;34.10;;;19.08;;
30398;SDS011;17195;50.838;7.214;2024-03-08T05:00:29;35.00;;;19.67;;
30398;SDS011;17195;50.838;7.214;2024-03-08T05:02:55;33.88;;;19.33;;
30398;SDS011;17195;50.838;7.214;2024-03-08T05:05:20;34.25;;;19.17;;
30398;SDS011;17195;50.838;7.214;2024-03-08T05:07:47;35.63;;;21.20;;
30398;SDS011;17195;50.838;7.214;2024-03-08T05:10:13;36.28;;;20.10;;
30398;SDS011;17195;50.838;7.214;2024-03-08T05:12:42;34.97;;;20.98;;
30398;SDS011;17195;50.838;7.214;2024-03-08T05:15:10;36.15;;;20.00;;
30398;SDS011;17195;50.838;7.214;2024-03-08T05:17:36;38.50;;;20.75;;
30398;SDS011;17195;50.838;7.214;2024-03-08T05:20:02;37.25;;;20.73;;
30398;SDS011;17195;50.838;7.214;2024-03-08T05:22:28;35.58;;;20.70;;
30398;SDS011;17195;50.838;7.214;2024-03-08T05:24:54;40.15;;;21.10;;
30398;SDS011;17195;50.838;7.214;2024-03-08T05:27:20;37.88;;;20.85;;
30398;SDS011;17195;50.838;7.214;2024-03-08T05:29:46;37.08;;;21.10;;
30398;SDS011;17195;50.838;7.214;2024-03-08T05:32:11;34.60;;;20.85;;
30398;SDS011;17195;50.838;7.214;2024-03-08T05:34:37;40.08;;;20.75;;
30398;SDS011;17195;50.838;7.214;2024-03-08T05:37:03;37.50;;;21.00;;
30398;SDS011;17195;50.838;7.214;2024-03-08T05:39:29;42.13;;;21.40;;
30398;SDS011;17195;50.838;7.214;2024-03-08T05:41:55;36.15;;;21.63;;
30398;SDS011;17195;50.838;7.214;2024-03-08T05:44:21;35.88;;;20.83;;
30398;SDS011;17195;50.838;7.214;2024-03-08T05:46:46;37.80;;;21.25;;
30398;SDS011;17195;50.838;7.214;2024-03-08T05:49:12;35.53;;;21.08;;
30398;SDS011;17195;50.838;7.214;2024-03-08T05:51:38;37.70;;;21.50;;
30398;SDS011;17195;50.838;7.214;2024-03-08T05:54:05;40.33;;;22.23;;
30398;SDS011;17195;50.838;7.214;2024-03-08T05:56:33;36.53;;;20.50;;
30398;SDS011;17195;50.838;7.214;2024-03-08T05:59:00;39.80;;;22.13;;
30398;SDS011;17195;50.838;7.214;2024-03-08T06:01:27;37.63;;;21.83;;
30398;SDS011;17195;50.838;7.214;2024-03-08T06:04:01;38.72;;;21.67;;
30398;SDS011;17195;50.838;7.214;2024-03-08T06:06:27;35.72;;;20.77;;
30398;SDS011;17195;50.838;7.214;2024-03-08T06:08:53;37.40;;;20.95;;
30398;SDS011;17195;50.838;7.214;2024-03-08T06:11:21;39.50;;;21.35;;
30398;SDS011;17195;50.838;7.214;2024-03-08T06:13:47;43.33;;;22.00;;
30398;SDS011;17195;50.838;7.214;2024-03-08T06:16:14;38.28;;;22.05;;
30398;SDS011;17195;50.838;7.214;2024-03-08T06:18:39;39.00;;;21.50;;
30398;SDS011;17195;50.838;7.214;2024-03-08T06:21:06;40.47;;;21.83;;
30398;SDS011;17195;50.838;7.214;2024-03-08T06:23:32;38.85;;;21.48;;
30398;SDS011;17195;50.838;7.214;2024-03-08T06:25:58;35.85;;;20.08;;
30398;SDS011;17195;50.838;7.214;2024-03-08T06:28:24;40.47;;;22.27;;
30398;SDS011;17195;50.838;7.214;2024-03-08T06:30:49;37.47;;;21.10;;
30398;SDS011;17195;50.838;7.214;2024-03-08T06:33:16;42.50;;;22.08;;
30398;SDS011;17195;50.838;7.214;2024-03-08T06:35:42;36.08;;;21.75;;
30398;SDS011;17195;50.838;7.214;2024-03-08T06:38:07;39.10;;;21.60;;
30398;SDS011;17195;50.838;7.214;2024-03-08T06:40:33;37.50;;;20.70;;
30398;SDS011;17195;50.838;7.214;2024-03-08T06:42:58;39.38;;;21.42;;
30398;SDS011;17195;50.838;7.214;2024-03-08T06:45:24;43.20;;;21.33;;
30398;SDS011;17195;50.838;7.214;2024-03-08T06:47:50;35.63;;;21.50;;
30398;SDS011;17195;50.838;7.214;2024-03-08T06:50:16;37.53;;;20.20;;
30398;SDS011;17195;50.838;7.214;2024-03-08T06:52:42;39.28;;;20.17;;
30398;SDS011;17195;50.838;7.214;2024-03-08T06:55:09;38.10;;;21.88;;
30398;SDS011;17195;50.838;7.214;2024-03-08T06:57:38;37.28;;;20.33;;
30398;SDS011;17195;50.838;7.214;2024-03-08T07:00:05;35.40;;;20.60;;
30398;SDS011;17195;50.838;7.214;2024-03-08T07:02:36;36.40;;;20.00;;
30398;SDS011;17195;50.838;7.214;2024-03-08T07:05:02;37.38;;;20.70;;
30398;SDS011;17195;50.838;7.214;2024-03-08T07:07:29;38.00;;;21.83;;
30398;SDS011;17195;50.838;7.214;2024-03-08T07:09:56;44.50;;;25.25;;
30398;SDS011;17195;50.838;7.214;2024-03-08T07:12:22;36.95;;;21.65;;
30398;SDS011;17195;50.838;7.214;2024-03-08T07:14:48;38.58;;;21.13;;
30398;SDS011;17195;50.838;7.214;2024-03-08T07:17:14;37.40;;;20.60;;
30398;SDS011;17195;50.838;7.214;2024-03-08T07:19:39;37.45;;;20.77;;
30398;SDS011;17195;50.838;7.214;2024-03-08T07:22:05;38.90;;;21.45;;
30398;SDS011;17195;50.838;7.214;2024-03-08T07:24:33;40.10;;;21.25;;
30398;SDS011;17195;50.838;7.214;2024-03-08T07:27:19;36.70;;;20.00;;
30398;SDS011;17195;50.838;7.214;2024-03-08T07:29:44;33.90;;;20.17;;
30398;SDS011;17195;50.838;7.214;2024-03-08T07:32:10;36.40;;;20.58;;
30398;SDS011;17195;50.838;7.214;2024-03-08T07:34:44;38.05;;;20.20;;
30398;SDS011;17195;50.838;7.214;2024-03-08T07:37:09;35.28;;;20.38;;
30398;SDS011;17195;50.838;7.214;2024-03-08T07:39:38;33.40;;;19.17;;
30398;SDS011;17195;50.838;7.214;2024-03-08T07:42:04;32.10;;;18.13;;
30398;SDS011;17195;50.838;7.214;2024-03-08T07:44:30;33.65;;;19.75;;
30398;SDS011;17195;50.838;7.214;2024-03-08T07:46:56;33.20;;;18.75;;
30398;SDS011;17195;50.838;7.214;2024-03-08T07:49:22;32.17;;;19.25;;
30398;SDS011;17195;50.838;7.214;2024-03-08T07:51:47;33.70;;;18.48;;
30398;SDS011;17195;50.838;7.214;2024-03-08T07:54:14;34.35;;;19.13;;
30398;SDS011;17195;50.838;7.214;2024-03-08T07:56:40;35.63;;;19.60;;
30398;SDS011;17195;50.838;7.214;2024-03-08T07:59:05;34.90;;;19.98;;
30398;SDS011;17195;50.838;7.214;2024-03-08T08:01:31;34.67;;;19.52;;
30398;SDS011;17195;50.838;7.214;2024-03-08T08:03:58;32.28;;;18.08;;
30398;SDS011;17195;50.838;7.214;2024-03-08T08:06:26;32.58;;;18.77;;
30398;SDS011;17195;50.838;7.214;2024-03-08T08:08:52;35.25;;;18.70;;
30398;SDS011;17195;50.838;7.214;2024-03-08T08:11:17;31.70;;;19.20;;
30398;SDS011;17195;50.838;7.214;2024-03-08T08:13:43;32.50;;;19.55;;
30398;SDS011;17195;50.838;7.214;2024-03-08T08:16:09;29.83;;;19.00;;
30398;SDS011;17195;50.838;7.214;2024-03-08T08:18:35;29.92;;;17.35;;
30398;SDS011;17195;50.838;7.214;2024-03-08T08:21:01;30.75;;;18.02;;
30398;SDS011;17195;50.838;7.214;2024-03-08T08:23:27;34.70;;;19.20;;
30398;SDS011;17195;50.838;7.214;2024-03-08T08:25:54;29.05;;;17.83;;
30398;SDS011;17195;50.838;7.214;2024-03-08T08:28:20;30.52;;;18.20;;
30398;SDS011;17195;50.838;7.214;2024-03-08T08:30:46;31.67;;;16.85;;
30398;SDS011;17195;50.838;7.214;2024-03-08T08:33:11;30.25;;;18.77;;
30398;SDS011;17195;50.838;7.214;2024-03-08T08:35:38;30.85;;;18.60;;
30398;SDS011;17195;50.838;7.214;2024-03-08T08:38:04;30.67;;;18.27;;
30398;SDS011;17195;50.838;7.214;2024-03-08T08:40:30;31.73;;;18.20;;
30398;SDS011;17195;50.838;7.214;2024-03-08T08:42:57;27.80;;;16.90;;
30398;SDS011;17195;50.838;7.214;2024-03-08T08:45:23;29.20;;;16.85;;
30398;SDS011;17195;50.838;7.214;2024-03-08T08:47:48;31.55;;;17.98;;
30398;SDS011;17195;50.838;7.214;2024-03-08T08:50:14;30.10;;;17.10;;
30398;SDS011;17195;50.838;7.214;2024-03-08T08:52:41;26.50;;;16.38;;
30398;SDS011;17195;50.838;7.214;2024-03-08T08:55:08;28.23;;;17.35;;
30398;SDS011;17195;50.838;7.214;2024-03-08T08:57:39;30.13;;;16.08;;
30398;SDS011;17195;50.838;7.214;2024-03-08T09:00:08;27.20;;;16.83;;
30398;SDS011;17195;50.838;7.214;2024-03-08T09:02:39;25.33;;;16.08;;
30398;SDS011;17195;50.838;7.214;2024-03-08T09:05:06;29.05;;;16.40;;
30398;SDS011;17195;50.838;7.214;2024-03-08T09:07:32;28.48;;;16.58;;
30398;SDS011;17195;50.838;7.214;2024-03-08T09:09:58;27.90;;;16.33;;
30398;SDS011;17195;50.838;7.214;2024-03-08T09:12:25;26.77;;;15.65;;
30398;SDS011;17195;50.838;7.214;2024-03-08T09:14:51;24.83;;;15.35;;
30398;SDS011;17195;50.838;7.214;2024-03-08T09:17:16;28.08;;;15.02;;
30398;SDS011;17195;50.838;7.214;2024-03-08T09:19:45;26.50;;;16.35;;
30398;SDS011;17195;50.838;7.214;2024-03-08T09:22:12;26.15;;;14.98;;
30398;SDS011;17195;50.838;7.214;2024-03-08T09:24:38;22.92;;;14.02;;
30398;SDS011;17195;50.838;7.214;2024-03-08T09:27:04;24.77;;;15.32;;
30398;SDS011;17195;50.838;7.214;2024-03-08T09:29:29;21.27;;;13.70;;
30398;SDS011;17195;50.838;7.214;2024-03-08T09:31:55;21.83;;;13.40;;
30398;SDS011;17195;50.838;7.214;2024-03-08T09:34:21;19.85;;;11.82;;
30398;SDS011;17195;50.838;7.214;2024-03-08T09:36:46;21.48;;;12.00;;
30398;SDS011;17195;50.838;7.214;2024-03-08T09:39:12;19.50;;;11.75;;
30398;SDS011;17195;50.838;7.214;2024-03-08T09:41:42;19.33;;;12.00;;
30398;SDS011;17195;50.838;7.214;2024-03-08T09:44:08;19.55;;;11.88;;
30398;SDS011;17195;50.838;7.214;2024-03-08T09:46:34;18.92;;;11.32;;
30398;SDS011;17195;50.838;7.214;2024-03-08T09:49:00;17.92;;;11.65;;
30398;SDS011;17195;50.838;7.214;2024-03-08T09:51:27;16.65;;;11.05;;
30398;SDS011;17195;50.838;7.214;2024-03-08T09:53:54;16.73;;;10.93;;
30398;SDS011;17195;50.838;7.214;2024-03-08T09:56:20;21.35;;;11.65;;
30398;SDS011;17195;50.838;7.214;2024-03-08T09:58:48;17.00;;;11.18;;
30398;SDS011;17195;50.838;7.214;2024-03-08T10:01:33;16.77;;;10.90;;
30398;SDS011;17195;50.838;7.214;2024-03-08T10:03:58;19.25;;;10.88;;
30398;SDS011;17195;50.838;7.214;2024-03-08T10:06:24;16.17;;;10.77;;
30398;SDS011;17195;50.838;7.214;2024-03-08T10:08:50;16.00;;;11.10;;
30398;SDS011;17195;50.838;7.214;2024-03-08T10:11:19;15.35;;;10.40;;
30398;SDS011;17195;50.838;7.214;2024-03-08T10:13:44;14.77;;;10.18;;
30398;SDS011;17195;50.838;7.214;2024-03-08T10:16:12;15.65;;;10.45;;
30398;SDS011;17195;50.838;7.214;2024-03-08T10:18:38;14.82;;;10.45;;
30398;SDS011;17195;50.838;7.214;2024-03-08T10:23:30;15.63;;;10.30;;
30398;SDS011;17195;50.838;7.214;2024-03-08T10:25:56;15.07;;;10.80;;
30398;SDS011;17195;50.838;7.214;2024-03-08T10:28:23;15.57;;;10.50;;
30398;SDS011;17195;50.838;7.214;2024-03-08T10:30:53;15.35;;;10.23;;
30398;SDS011;17195;50.838;7.214;2024-03-08T10:33:23;22.50;;;14.80;;
30398;SDS011;17195;50.838;7.214;2024-03-08T10:35:48;19.98;;;11.45;;
30398;SDS011;17195;50.838;7.214;2024-03-08T10:38:14;31.58;;;10.90;;
30398;SDS011;17195;50.838;7.214;2024-03-08T10:40:44;15.25;;;10.68;;
30398;SDS011;17195;50.838;7.214;2024-03-08T10:43:11;16.75;;;10.75;;
30398;SDS011;17195;50.838;7.214;2024-03-08T10:45:49;18.60;;;11.38;;
30398;SDS011;17195;50.838;7.214;2024-03-08T10:48:31;16.42;;;10.73;;
30398;SDS011;17195;50.838;7.214;2024-03-08T10:50:57;19.73;;;10.70;;
30398;SDS011;17195;50.838;7.214;2024-03-08T10:53:29;14.55;;;10.27;;
30398;SDS011;17195;50.838;7.214;2024-03-08T10:55:58;18.40;;;10.90;;
30398;SDS011;17195;50.838;7.214;2024-03-08T10:58:25;16.02;;;10.90;;
30398;SDS011;17195;50.838;7.214;2024-03-08T11:00:55;15.13;;;11.00;;
30398;SDS011;17195;50.838;7.214;2024-03-08T11:06:06;16.40;;;10.50;;
30398;SDS011;17195;50.838;7.214;2024-03-08T11:11:27;15.13;;;10.27;;
30398;SDS011;17195;50.838;7.214;2024-03-08T11:13:57;15.20;;;9.57;;
30398;SDS011;17195;50.838;7.214;2024-03-08T11:18:57;14.50;;;9.38;;
30398;SDS011;17195;50.838;7.214;2024-03-08T11:21:31;15.27;;;9.02;;
30398;SDS011;17195;50.838;7.214;2024-03-08T11:23:59;12.50;;;8.93;;
30398;SDS011;17195;50.838;7.214;2024-03-08T11:26:25;16.48;;;10.10;;
30398;SDS011;17195;50.838;7.214;2024-03-08T11:28:50;15.38;;;10.10;;
30398;SDS011;17195;50.838;7.214;2024-03-08T11:33:46;13.80;;;9.35;;
30398;SDS011;17195;50.838;7.214;2024-03-08T11:36:14;13.02;;;9.50;;
30398;SDS011;17195;50.838;7.214;2024-03-08T11:38:49;14.43;;;9.60;;
30398;SDS011;17195;50.838;7.214;2024-03-08T11:41:18;14.35;;;8.88;;
30398;SDS011;17195;50.838;7.214;2024-03-08T11:43:45;12.35;;;9.52;;
30398;SDS011;17195;50.838;7.214;2024-03-08T11:46:11;14.52;;;9.75;;
30398;SDS011;17195;50.838;7.214;2024-03-08T11:48:40;15.85;;;9.77;;
30398;SDS011;17195;50.838;7.214;2024-03-08T11:51:10;13.65;;;9.93;;
30398;SDS011;17195;50.838;7.214;2024-03-08T11:53:37;14.80;;;9.43;;
30398;SDS011;17195;50.838;7.214;2024-03-08T11:56:12;13.32;;;9.38;;
30398;SDS011;17195;50.838;7.214;2024-03-08T11:58:38;12.68;;;9.32;;
30398;SDS011;17195;50.838;7.214;2024-03-08T12:01:05;12.98;;;9.55;;
30398;SDS011;17195;50.838;7.214;2024-03-08T12:03:34;13.93;;;9.63;;
30398;SDS011;17195;50.838;7.214;2024-03-08T12:06:00;16.08;;;10.07;;
30398;SDS011;17195;50.838;7.214;2024-03-08T12:08:27;14.30;;;9.45;;
30398;SDS011;17195;50.838;7.214;2024-03-08T12:10:56;13.00;;;9.15;;
30398;SDS011;17195;50.838;7.214;2024-03-08T12:13:27;14.90;;;10.20;;
30398;SDS011;17195;50.838;7.214;2024-03-08T12:15:58;15.20;;;9.80;;
30398;SDS011;17195;50.838;7.214;2024-03-08T12:18:25;13.50;;;10.20;;
30398;SDS011;17195;50.838;7.214;2024-03-08T12:20:51;11.95;;;8.90;;
30398;SDS011;17195;50.838;7.214;2024-03-08T12:23:17;14.88;;;9.82;;
30398;SDS011;17195;50.838;7.214;2024-03-08T12:25:42;15.27;;;10.35;;
30398;SDS011;17195;50.838;7.214;2024-03-08T12:28:12;13.98;;;9.38;;
30398;SDS011;17195;50.838;7.214;2024-03-08T12:30:46;13.80;;;9.38;;
30398;SDS011;17195;50.838;7.214;2024-03-08T12:33:13;14.85;;;9.20;;
30398;SDS011;17195;50.838;7.214;2024-03-08T12:35:39;12.77;;;9.77;;
30398;SDS011;17195;50.838;7.214;2024-03-08T12:38:05;13.20;;;9.35;;
30398;SDS011;17195;50.838;7.214;2024-03-08T12:40:33;14.13;;;9.25;;
30398;SDS011;17195;50.838;7.214;2024-03-08T12:43:06;13.60;;;9.30;;
30398;SDS011;17195;50.838;7.214;2024-03-08T12:45:32;13.32;;;8.60;;
30398;SDS011;17195;50.838;7.214;2024-03-08T12:47:58;13.07;;;8.93;;
30398;SDS011;17195;50.838;7.214;2024-03-08T12:50:24;12.70;;;9.35;;
30398;SDS011;17195;50.838;7.214;2024-03-08T12:52:50;12.55;;;8.95;;
30398;SDS011;17195;50.838;7.214;2024-03-08T12:55:17;10.82;;;8.15;;
30398;SDS011;17195;50.838;7.214;2024-03-08T12:57:43;12.80;;;8.15;;
30398;SDS011;17195;50.838;7.214;2024-03-08T13:00:10;10.50;;;8.18;;
30398;SDS011;17195;50.838;7.214;2024-03-08T13:02:43;14.27;;;8.15;;
30398;SDS011;17195;50.838;7.214;2024-03-08T13:05:12;12.90;;;8.50;;
30398;SDS011;17195;50.838;7.214;2024-03-08T13:07:39;10.77;;;7.28;;
30398;SDS011;17195;50.838;7.214;2024-03-08T13:10:09;12.35;;;8.27;;
30398;SDS011;17195;50.838;7.214;2024-03-08T13:12:39;12.15;;;8.43;;
30398;SDS011;17195;50.838;7.214;2024-03-08T13:15:06;9.60;;;7.65;;
30398;SDS011;17195;50.838;7.214;2024-03-08T13:17:33;12.13;;;7.65;;
30398;SDS011;17195;50.838;7.214;2024-03-08T13:19:59;10.70;;;8.25;;
30398;SDS011;17195;50.838;7.214;2024-03-08T13:22:24;11.23;;;7.75;;
30398;SDS011;17195;50.838;7.214;2024-03-08T13:24:50;12.70;;;7.40;;
30398;SDS011;17195;50.838;7.214;2024-03-08T13:27:17;13.52;;;8.68;;
30398;SDS011;17195;50.838;7.214;2024-03-08T13:29:47;10.90;;;7.93;;
30398;SDS011;17195;50.838;7.214;2024-03-08T13:32:16;10.07;;;7.90;;
30398;SDS011;17195;50.838;7.214;2024-03-08T13:34:42;11.43;;;7.68;;
30398;SDS011;17195;50.838;7.214;2024-03-08T13:37:10;12.43;;;8.10;;
30398;SDS011;17195;50.838;7.214;2024-03-08T13:39:36;11.38;;;7.70;;
30398;SDS011;17195;50.838;7.214;2024-03-08T13:42:08;10.10;;;7.82;;
30398;SDS011;17195;50.838;7.214;2024-03-08T13:44:47;12.13;;;8.40;;
30398;SDS011;17195;50.838;7.214;2024-03-08T13:47:15;10.95;;;7.85;;
30398;SDS011;17195;50.838;7.214;2024-03-08T13:49:42;14.27;;;8.85;;
30398;SDS011;17195;50.838;7.214;2024-03-08T13:52:08;15.43;;;8.20;;
30398;SDS011;17195;50.838;7.214;2024-03-08T13:54:35;11.57;;;8.05;;
30398;SDS011;17195;50.838;7.214;2024-03-08T13:57:01;12.70;;;8.55;;
30398;SDS011;17195;50.838;7.214;2024-03-08T13:59:32;12.77;;;9.10;;
30398;SDS011;17195;50.838;7.214;2024-03-08T14:01:58;14.02;;;9.32;;
30398;SDS011;17195;50.838;7.214;2024-03-08T14:04:26;15.77;;;9.27;;
30398;SDS011;17195;50.838;7.214;2024-03-08T14:06:52;12.50;;;9.25;;
30398;SDS011;17195;50.838;7.214;2024-03-08T14:09:22;13.90;;;8.70;;
30398;SDS011;17195;50.838;7.214;2024-03-08T14:11:49;11.20;;;8.48;;
30398;SDS011;17195;50.838;7.214;2024-03-08T14:14:18;12.10;;;9.48;;
30398;SDS011;17195;50.838;7.214;2024-03-08T14:16:46;12.45;;;8.70;;
30398;SDS011;17195;50.838;7.214;2024-03-08T14:19:13;13.85;;;9.48;;
30398;SDS011;17195;50.838;7.214;2024-03-08T14:21:40;12.98;;;8.88;;
30398;SDS011;17195;50.838;7.214;2024-03-08T14:24:07;13.38;;;8.57;;
30398;SDS011;17195;50.838;7.214;2024-03-08T14:26:33;13.48;;;9.07;;
30398;SDS011;17195;50.838;7.214;2024-03-08T14:28:59;14.43;;;9.73;;
30398;SDS011;17195;50.838;7.214;2024-03-08T14:31:24;12.93;;;8.20;;
30398;SDS011;17195;50.838;7.214;2024-03-08T14:33:51;14.02;;;9.75;;
30398;SDS011;17195;50.838;7.214;2024-03-08T14:36:17;13.70;;;9.10;;